Aeroporto :
LOGIN :

Iscrizione | Disclaimer

   EN    FR    IT 

 










Sommario :    VFR   VFR Marginale   IFR   IFR Intensivo   IFR Molto Intensivo
Visibilità : 
Base nubi : 
>= 8 km
>= 3000ft
5 / 8 km
1000 / 3000 ft
1500m / 5 km
500 / 1000 ft
800 / 1500m
200 / 500 ft
< 800m
< 200 ft
Simboli :   Temporali  Nebbia  Neve Forte  Precipitazioni Forti  Vento > 20 kt
SIGMETs :   Varie  Temporali  Ghiacco  Turbolenza  Onda orograficha  Ceneri Vulcaniche







- Altitudine del aeroporto : 5600 ft
- Codice IATA : SMV


LSZS - Samedan

ULTIMO METAR :
  • 261520Z 03003KT 350V060 9999 FEW001 BKN052 00/M01 Q1015 RESN R03/6902// RMK T

METARs OBSOLETI :
  • 261450Z 11005KT 050V160 0900 SN VV005 01/M01 Q1015 R03/6904// RMK S
  • 261420Z 17007KT 0500 SN OVC005 01/M00 Q1016 R03/6904// RMK R
  • 261350Z 18011KT 0500 SN OVC004 01/M00 Q1016 R03/6903// RMK Q
  • 261320Z 20020KT 0500 -SN OVC005 01/M01 Q1015 R03/29//// RMK P
  • 261250Z 16007KT 130V200 5000 RA SCT009 OVC020TCU 03/02 Q1014 R03/29//// RMK O

TAF TAF LSZS
Valido dal 26 a 15 ore il 27 a 00 ore UTC


261425Z 2615/2624 18011KT 0500 SN OVC004 TX02/2615Z
BECMG 2615/2617 5000 NSW SCT020
PROB30
TEMPO 2618/2622 -SHSN
ATIS : +41 81 834 93 24
Nessun NOTAM noto per questo aeroporto.



MetMap, La meteo Aeronautica in un colpo d'occhio ! - Copyright ORBIFLY Dicembre 2007 - Disclaimer

ORBIFLY MET'MAP TEAM :

Programmazione e sviluppo : Alexandra Zaïnal
Concezione e sviluppo : Baudouin d'Aumeries
Co-Programmazione e sviluppo : Marc-Olivier Méhu
Supporto tecnico e logistico : Manuel Goepfert
Aiuto per la traduzione : Arnaldo La Scala

Contatto : metmap@orbifly.com




FONTI E CREDITI :

   NOAA